Aviation Digital Data Service (ADDS)

Output produced by TAFs form (0450 UTC 29 July 2015)
found at http://aviationweather.gov/adds/tafs/
 
KAMA 290306Z 2903/2924 09009KT P6SM TSRA BKN090CB BKN250 
     TEMPO 2903/2906 VRB15G25KT 2SM +TSRA SCT030 OVC070CB 
     FM290800 05011KT P6SM BKN080